sensor_id;sensor_type;location;lat;lon;timestamp;pressure;altitude;pressure_sealevel;temperature;humidity
81905;BME280;71370;-33.792;151.032;2024-01-27T00:00:54;100178.71;;;23.64;67.52
81905;BME280;71370;-33.792;151.032;2024-01-27T00:02:01;100181.16;;;23.62;67.78
81905;BME280;71370;-33.792;151.032;2024-01-27T00:03:08;100178.73;;;23.61;68.30
81905;BME280;71370;-33.792;151.032;2024-01-27T00:04:15;100175.92;;;23.60;68.14
81905;BME280;71370;-33.792;151.032;2024-01-27T00:05:22;100178.49;;;23.57;68.27
81905;BME280;71370;-33.792;151.032;2024-01-27T00:06:29;100180.40;;;23.53;68.26
81905;BME280;71370;-33.792;151.032;2024-01-27T00:07:36;100186.98;;;23.52;68.59
81905;BME280;71370;-33.792;151.032;2024-01-27T00:08:43;100189.37;;;23.49;68.92
81905;BME280;71370;-33.792;151.032;2024-01-27T00:09:49;100190.92;;;23.45;69.07
81905;BME280;71370;-33.792;151.032;2024-01-27T00:10:56;100188.69;;;23.41;68.99
81905;BME280;71370;-33.792;151.032;2024-01-27T00:12:03;100189.60;;;23.39;69.34
81905;BME280;71370;-33.792;151.032;2024-01-27T00:13:11;100188.45;;;23.37;69.23
81905;BME280;71370;-33.792;151.032;2024-01-27T00:14:17;100190.81;;;23.34;69.30
81905;BME280;71370;-33.792;151.032;2024-01-27T00:15:24;100189.38;;;23.30;69.35
81905;BME280;71370;-33.792;151.032;2024-01-27T00:16:31;100185.10;;;23.27;69.50
81905;BME280;71370;-33.792;151.032;2024-01-27T00:17:38;100180.59;;;23.25;69.71
81905;BME280;71370;-33.792;151.032;2024-01-27T00:18:46;100184.79;;;23.22;69.78
81905;BME280;71370;-33.792;151.032;2024-01-27T00:19:53;100182.34;;;23.21;70.01
81905;BME280;71370;-33.792;151.032;2024-01-27T00:21:00;100182.83;;;23.21;70.16
81905;BME280;71370;-33.792;151.032;2024-01-27T00:22:07;100181.52;;;23.22;70.03
81905;BME280;71370;-33.792;151.032;2024-01-27T00:23:14;100184.56;;;23.22;70.07
81905;BME280;71370;-33.792;151.032;2024-01-27T00:24:21;100183.51;;;23.22;70.10
81905;BME280;71370;-33.792;151.032;2024-01-27T00:25:28;100183.11;;;23.20;70.27
81905;BME280;71370;-33.792;151.032;2024-01-27T00:26:35;100181.66;;;23.18;70.43
81905;BME280;71370;-33.792;151.032;2024-01-27T00:27:42;100179.81;;;23.16;70.26
81905;BME280;71370;-33.792;151.032;2024-01-27T00:28:49;100173.87;;;23.14;70.44
81905;BME280;71370;-33.792;151.032;2024-01-27T00:29:56;100177.98;;;23.14;70.47
81905;BME280;71370;-33.792;151.032;2024-01-27T00:31:03;100177.08;;;23.14;70.52
81905;BME280;71370;-33.792;151.032;2024-01-27T00:32:10;100179.15;;;23.16;70.51
81905;BME280;71370;-33.792;151.032;2024-01-27T00:33:17;100182.29;;;23.17;70.58
81905;BME280;71370;-33.792;151.032;2024-01-27T00:34:24;100182.56;;;23.18;70.55
81905;BME280;71370;-33.792;151.032;2024-01-27T00:35:31;100183.95;;;23.18;70.63
81905;BME280;71370;-33.792;151.032;2024-01-27T00:36:38;100190.83;;;23.20;70.70
81905;BME280;71370;-33.792;151.032;2024-01-27T00:37:45;100191.27;;;23.21;70.60
81905;BME280;71370;-33.792;151.032;2024-01-27T00:38:52;100186.45;;;23.21;70.52
81905;BME280;71370;-33.792;151.032;2024-01-27T00:39:59;100183.84;;;23.22;70.61
81905;BME280;71370;-33.792;151.032;2024-01-27T00:41:06;100183.77;;;23.23;70.46
81905;BME280;71370;-33.792;151.032;2024-01-27T00:42:14;100184.89;;;23.25;70.53
81905;BME280;71370;-33.792;151.032;2024-01-27T00:43:21;100181.85;;;23.27;70.70
81905;BME280;71370;-33.792;151.032;2024-01-27T00:44:28;100183.98;;;23.30;70.99
81905;BME280;71370;-33.792;151.032;2024-01-27T00:45:34;100181.14;;;23.32;70.89
81905;BME280;71370;-33.792;151.032;2024-01-27T00:46:41;100185.14;;;23.33;71.01
81905;BME280;71370;-33.792;151.032;2024-01-27T00:47:51;100184.10;;;23.33;70.99
81905;BME280;71370;-33.792;151.032;2024-01-27T00:48:58;100185.44;;;23.32;70.89
81905;BME280;71370;-33.792;151.032;2024-01-27T00:50:05;100183.98;;;23.30;70.78
81905;BME280;71370;-33.792;151.032;2024-01-27T00:51:14;100180.99;;;23.29;71.13
81905;BME280;71370;-33.792;151.032;2024-01-27T00:52:21;100182.92;;;23.29;71.11
81905;BME280;71370;-33.792;151.032;2024-01-27T00:53:28;100181.52;;;23.31;71.11
81905;BME280;71370;-33.792;151.032;2024-01-27T00:54:35;100181.01;;;23.31;70.97
81905;BME280;71370;-33.792;151.032;2024-01-27T00:55:42;100180.60;;;23.29;70.83
81905;BME280;71370;-33.792;151.032;2024-01-27T00:56:49;100182.17;;;23.28;70.99
81905;BME280;71370;-33.792;151.032;2024-01-27T00:57:56;100183.17;;;23.26;71.04
81905;BME280;71370;-33.792;151.032;2024-01-27T00:59:03;100183.58;;;23.26;70.88
81905;BME280;71370;-33.792;151.032;2024-01-27T01:00:10;100177.54;;;23.25;71.08
81905;BME280;71370;-33.792;151.032;2024-01-27T01:01:17;100180.90;;;23.25;71.19
81905;BME280;71370;-33.792;151.032;2024-01-27T01:02:24;100182.68;;;23.26;71.29
81905;BME280;71370;-33.792;151.032;2024-01-27T01:03:31;100182.35;;;23.25;70.98
81905;BME280;71370;-33.792;151.032;2024-01-27T01:04:38;100183.61;;;23.25;70.82
81905;BME280;71370;-33.792;151.032;2024-01-27T01:05:45;100186.83;;;23.25;70.85
81905;BME280;71370;-33.792;151.032;2024-01-27T01:06:52;100185.05;;;23.25;70.85
81905;BME280;71370;-33.792;151.032;2024-01-27T01:07:59;100189.30;;;23.26;71.07
81905;BME280;71370;-33.792;151.032;2024-01-27T01:09:06;100193.17;;;23.27;71.30
81905;BME280;71370;-33.792;151.032;2024-01-27T01:10:12;100188.59;;;23.28;71.08
81905;BME280;71370;-33.792;151.032;2024-01-27T01:11:19;100186.67;;;23.30;71.38
81905;BME280;71370;-33.792;151.032;2024-01-27T01:12:26;100187.05;;;23.32;71.33
81905;BME280;71370;-33.792;151.032;2024-01-27T01:13:33;100182.36;;;23.32;71.14
81905;BME280;71370;-33.792;151.032;2024-01-27T01:14:40;100181.02;;;23.33;71.28
81905;BME280;71370;-33.792;151.032;2024-01-27T01:15:47;100179.30;;;23.35;71.28
81905;BME280;71370;-33.792;151.032;2024-01-27T01:16:54;100179.34;;;23.37;71.46
81905;BME280;71370;-33.792;151.032;2024-01-27T01:18:01;100181.55;;;23.38;71.51
81905;BME280;71370;-33.792;151.032;2024-01-27T01:19:08;100184.84;;;23.40;71.08
81905;BME280;71370;-33.792;151.032;2024-01-27T01:20:15;100182.69;;;23.40;71.19
81905;BME280;71370;-33.792;151.032;2024-01-27T01:21:22;100185.95;;;23.40;71.40
81905;BME280;71370;-33.792;151.032;2024-01-27T01:22:29;100189.65;;;23.40;71.84
81905;BME280;71370;-33.792;151.032;2024-01-27T01:23:36;100194.30;;;23.41;71.03
81905;BME280;71370;-33.792;151.032;2024-01-27T01:24:43;100194.52;;;23.40;70.88
81905;BME280;71370;-33.792;151.032;2024-01-27T01:25:49;100192.69;;;23.41;70.77
81905;BME280;71370;-33.792;151.032;2024-01-27T01:26:56;100190.84;;;23.41;70.91
81905;BME280;71370;-33.792;151.032;2024-01-27T01:28:04;100191.71;;;23.42;70.96
81905;BME280;71370;-33.792;151.032;2024-01-27T01:29:11;100190.57;;;23.42;70.81
81905;BME280;71370;-33.792;151.032;2024-01-27T01:30:18;100189.98;;;23.43;71.02
81905;BME280;71370;-33.792;151.032;2024-01-27T01:31:25;100185.39;;;23.44;71.28
81905;BME280;71370;-33.792;151.032;2024-01-27T01:32:32;100187.34;;;23.47;70.77
81905;BME280;71370;-33.792;151.032;2024-01-27T01:33:39;100187.59;;;23.49;70.65
81905;BME280;71370;-33.792;151.032;2024-01-27T01:34:47;100186.52;;;23.50;70.71
81905;BME280;71370;-33.792;151.032;2024-01-27T01:35:54;100188.36;;;23.52;70.42
81905;BME280;71370;-33.792;151.032;2024-01-27T01:37:01;100189.89;;;23.54;70.64
81905;BME280;71370;-33.792;151.032;2024-01-27T01:38:08;100189.98;;;23.55;70.86
81905;BME280;71370;-33.792;151.032;2024-01-27T01:39:15;100187.66;;;23.55;70.48
81905;BME280;71370;-33.792;151.032;2024-01-27T01:40:22;100182.13;;;23.55;70.33
81905;BME280;71370;-33.792;151.032;2024-01-27T01:41:29;100177.94;;;23.55;70.47
81905;BME280;71370;-33.792;151.032;2024-01-27T01:42:36;100174.52;;;23.56;70.32
81905;BME280;71370;-33.792;151.032;2024-01-27T01:43:43;100171.86;;;23.55;69.86
81905;BME280;71370;-33.792;151.032;2024-01-27T01:44:51;100182.77;;;23.53;69.96
81905;BME280;71370;-33.792;151.032;2024-01-27T01:45:58;100177.46;;;23.52;70.00
81905;BME280;71370;-33.792;151.032;2024-01-27T01:47:05;100176.41;;;23.52;69.68
81905;BME280;71370;-33.792;151.032;2024-01-27T01:48:12;100173.55;;;23.51;69.50
81905;BME280;71370;-33.792;151.032;2024-01-27T01:49:19;100173.31;;;23.52;69.73
81905;BME280;71370;-33.792;151.032;2024-01-27T01:50:26;100175.10;;;23.52;69.57
81905;BME280;71370;-33.792;151.032;2024-01-27T01:51:33;100163.91;;;23.53;69.11
81905;BME280;71370;-33.792;151.032;2024-01-27T01:52:40;100160.87;;;23.53;69.07
81905;BME280;71370;-33.792;151.032;2024-01-27T01:53:48;100155.23;;;23.54;68.99
81905;BME280;71370;-33.792;151.032;2024-01-27T01:54:56;100157.70;;;23.55;68.69
81905;BME280;71370;-33.792;151.032;2024-01-27T01:56:03;100157.19;;;23.55;68.70
81905;BME280;71370;-33.792;151.032;2024-01-27T01:57:10;100157.63;;;23.56;68.78
81905;BME280;71370;-33.792;151.032;2024-01-27T01:58:18;100155.45;;;23.56;68.45
81905;BME280;71370;-33.792;151.032;2024-01-27T01:59:25;100154.48;;;23.57;68.34
81905;BME280;71370;-33.792;151.032;2024-01-27T02:00:32;100157.77;;;23.58;68.51
81905;BME280;71370;-33.792;151.032;2024-01-27T02:01:39;100156.36;;;23.60;68.76
81905;BME280;71370;-33.792;151.032;2024-01-27T02:02:47;100151.75;;;23.62;68.89
81905;BME280;71370;-33.792;151.032;2024-01-27T02:03:55;100148.69;;;23.64;68.94
81905;BME280;71370;-33.792;151.032;2024-01-27T02:05:02;100141.94;;;23.66;68.66
81905;BME280;71370;-33.792;151.032;2024-01-27T02:06:09;100137.50;;;23.67;68.73
81905;BME280;71370;-33.792;151.032;2024-01-27T02:07:16;100137.60;;;23.68;68.79
81905;BME280;71370;-33.792;151.032;2024-01-27T02:08:23;100130.46;;;23.70;68.43
81905;BME280;71370;-33.792;151.032;2024-01-27T02:09:30;100128.98;;;23.74;68.38
81905;BME280;71370;-33.792;151.032;2024-01-27T02:10:37;100123.95;;;23.76;68.15
81905;BME280;71370;-33.792;151.032;2024-01-27T02:11:44;100123.17;;;23.76;68.12
81905;BME280;71370;-33.792;151.032;2024-01-27T02:12:51;100126.79;;;23.79;68.32
81905;BME280;71370;-33.792;151.032;2024-01-27T02:13:58;100122.75;;;23.80;67.72
81905;BME280;71370;-33.792;151.032;2024-01-27T02:15:05;100125.13;;;23.81;67.56
81905;BME280;71370;-33.792;151.032;2024-01-27T02:16:15;100124.91;;;23.82;67.63
81905;BME280;71370;-33.792;151.032;2024-01-27T02:17:24;100120.02;;;23.83;67.59
81905;BME280;71370;-33.792;151.032;2024-01-27T02:18:30;100117.39;;;23.84;67.43
81905;BME280;71370;-33.792;151.032;2024-01-27T02:19:37;100118.63;;;23.84;67.32
81905;BME280;71370;-33.792;151.032;2024-01-27T02:20:44;100118.89;;;23.85;67.17
81905;BME280;71370;-33.792;151.032;2024-01-27T02:21:52;100115.04;;;23.86;67.10
81905;BME280;71370;-33.792;151.032;2024-01-27T02:22:59;100112.60;;;23.88;67.31
81905;BME280;71370;-33.792;151.032;2024-01-27T02:24:09;100110.63;;;23.90;67.53
81905;BME280;71370;-33.792;151.032;2024-01-27T02:25:16;100116.40;;;23.92;67.32
81905;BME280;71370;-33.792;151.032;2024-01-27T02:26:23;100117.54;;;23.94;67.42
81905;BME280;71370;-33.792;151.032;2024-01-27T02:27:30;100117.96;;;23.95;67.17
81905;BME280;71370;-33.792;151.032;2024-01-27T02:28:37;100114.73;;;23.97;67.61
81905;BME280;71370;-33.792;151.032;2024-01-27T02:29:44;100113.67;;;23.99;67.51
81905;BME280;71370;-33.792;151.032;2024-01-27T02:30:51;100113.45;;;24.02;67.17
81905;BME280;71370;-33.792;151.032;2024-01-27T02:31:58;100109.00;;;24.04;66.53
81905;BME280;71370;-33.792;151.032;2024-01-27T02:33:05;100112.19;;;24.04;66.64
81905;BME280;71370;-33.792;151.032;2024-01-27T02:34:12;100108.83;;;24.06;66.74
81905;BME280;71370;-33.792;151.032;2024-01-27T02:35:19;100107.88;;;24.09;66.78
81905;BME280;71370;-33.792;151.032;2024-01-27T02:36:26;100103.75;;;24.11;66.73
81905;BME280;71370;-33.792;151.032;2024-01-27T02:37:32;100099.21;;;24.14;66.92
81905;BME280;71370;-33.792;151.032;2024-01-27T02:38:39;100098.16;;;24.16;66.94
81905;BME280;71370;-33.792;151.032;2024-01-27T02:39:46;100098.27;;;24.17;66.48
81905;BME280;71370;-33.792;151.032;2024-01-27T02:40:53;100098.83;;;24.19;66.66
81905;BME280;71370;-33.792;151.032;2024-01-27T02:42:00;100100.46;;;24.21;66.92
81905;BME280;71370;-33.792;151.032;2024-01-27T02:43:07;100099.50;;;24.21;66.98
81905;BME280;71370;-33.792;151.032;2024-01-27T02:44:14;100095.51;;;24.22;66.96
81905;BME280;71370;-33.792;151.032;2024-01-27T02:45:21;100096.54;;;24.23;66.91
81905;BME280;71370;-33.792;151.032;2024-01-27T02:46:28;100090.30;;;24.24;66.71
81905;BME280;71370;-33.792;151.032;2024-01-27T02:47:34;100083.92;;;24.27;66.61
81905;BME280;71370;-33.792;151.032;2024-01-27T02:48:42;100084.00;;;24.31;66.71
81905;BME280;71370;-33.792;151.032;2024-01-27T02:49:49;100083.17;;;24.35;66.99
81905;BME280;71370;-33.792;151.032;2024-01-27T02:50:56;100078.09;;;24.37;66.54
81905;BME280;71370;-33.792;151.032;2024-01-27T02:52:03;100075.02;;;24.40;66.58
81905;BME280;71370;-33.792;151.032;2024-01-27T02:53:10;100073.61;;;24.44;66.62
81905;BME280;71370;-33.792;151.032;2024-01-27T02:54:16;100071.86;;;24.47;66.52
81905;BME280;71370;-33.792;151.032;2024-01-27T02:55:23;100074.06;;;24.52;66.38
81905;BME280;71370;-33.792;151.032;2024-01-27T02:56:30;100074.42;;;24.54;66.00
81905;BME280;71370;-33.792;151.032;2024-01-27T02:57:37;100070.23;;;24.57;65.99
81905;BME280;71370;-33.792;151.032;2024-01-27T02:58:44;100067.50;;;24.59;65.70
81905;BME280;71370;-33.792;151.032;2024-01-27T02:59:51;100061.81;;;24.61;65.74
81905;BME280;71370;-33.792;151.032;2024-01-27T03:00:58;100062.67;;;24.63;65.94
81905;BME280;71370;-33.792;151.032;2024-01-27T03:02:05;100059.42;;;24.66;65.94
81905;BME280;71370;-33.792;151.032;2024-01-27T03:03:12;100060.29;;;24.68;65.40
81905;BME280;71370;-33.792;151.032;2024-01-27T03:04:19;100059.28;;;24.70;65.24
81905;BME280;71370;-33.792;151.032;2024-01-27T03:05:26;100060.55;;;24.72;65.06
81905;BME280;71370;-33.792;151.032;2024-01-27T03:06:33;100058.24;;;24.71;65.37
81905;BME280;71370;-33.792;151.032;2024-01-27T03:07:40;100058.90;;;24.72;65.33
81905;BME280;71370;-33.792;151.032;2024-01-27T03:08:47;100061.65;;;24.71;65.01
81905;BME280;71370;-33.792;151.032;2024-01-27T03:09:54;100061.90;;;24.71;65.50
81905;BME280;71370;-33.792;151.032;2024-01-27T03:11:01;100062.58;;;24.69;64.51
81905;BME280;71370;-33.792;151.032;2024-01-27T03:12:08;100053.35;;;24.67;64.20
81905;BME280;71370;-33.792;151.032;2024-01-27T03:13:15;100053.18;;;24.67;63.97
81905;BME280;71370;-33.792;151.032;2024-01-27T03:14:22;100050.51;;;24.67;63.70
81905;BME280;71370;-33.792;151.032;2024-01-27T03:15:29;100050.39;;;24.66;63.64
81905;BME280;71370;-33.792;151.032;2024-01-27T03:16:36;100045.29;;;24.64;63.89
81905;BME280;71370;-33.792;151.032;2024-01-27T03:17:43;100039.80;;;24.64;64.10
81905;BME280;71370;-33.792;151.032;2024-01-27T03:18:50;100033.95;;;24.65;64.32
81905;BME280;71370;-33.792;151.032;2024-01-27T03:19:57;100027.80;;;24.66;64.36
81905;BME280;71370;-33.792;151.032;2024-01-27T03:21:06;100022.61;;;24.67;64.20
81905;BME280;71370;-33.792;151.032;2024-01-27T03:22:14;100026.02;;;24.70;64.59
81905;BME280;71370;-33.792;151.032;2024-01-27T03:23:21;100028.03;;;24.71;63.80
81905;BME280;71370;-33.792;151.032;2024-01-27T03:24:28;100028.43;;;24.71;63.05
81905;BME280;71370;-33.792;151.032;2024-01-27T03:25:35;100029.13;;;24.69;62.82
81905;BME280;71370;-33.792;151.032;2024-01-27T03:26:41;100034.73;;;24.68;62.47
81905;BME280;71370;-33.792;151.032;2024-01-27T03:27:48;100038.34;;;24.66;62.65
81905;BME280;71370;-33.792;151.032;2024-01-27T03:28:55;100036.51;;;24.65;62.54
81905;BME280;71370;-33.792;151.032;2024-01-27T03:30:02;100032.31;;;24.63;62.39
81905;BME280;71370;-33.792;151.032;2024-01-27T03:31:09;100024.29;;;24.60;62.53
81905;BME280;71370;-33.792;151.032;2024-01-27T03:32:16;100024.21;;;24.59;62.09
81905;BME280;71370;-33.792;151.032;2024-01-27T03:33:24;100022.87;;;24.58;62.20
81905;BME280;71370;-33.792;151.032;2024-01-27T03:34:30;100024.19;;;24.57;62.44
81905;BME280;71370;-33.792;151.032;2024-01-27T03:35:39;100021.02;;;24.57;62.45
81905;BME280;71370;-33.792;151.032;2024-01-27T03:36:48;100023.78;;;24.56;62.89
81905;BME280;71370;-33.792;151.032;2024-01-27T03:37:55;100022.59;;;24.55;62.50
81905;BME280;71370;-33.792;151.032;2024-01-27T03:39:02;100026.41;;;24.54;62.72
81905;BME280;71370;-33.792;151.032;2024-01-27T03:40:10;100024.89;;;24.55;63.05
81905;BME280;71370;-33.792;151.032;2024-01-27T03:41:17;100025.55;;;24.56;63.05
81905;BME280;71370;-33.792;151.032;2024-01-27T03:42:24;100027.30;;;24.57;62.68
81905;BME280;71370;-33.792;151.032;2024-01-27T03:43:33;100027.45;;;24.57;62.39
81905;BME280;71370;-33.792;151.032;2024-01-27T03:44:40;100026.11;;;24.56;62.32
81905;BME280;71370;-33.792;151.032;2024-01-27T03:45:46;100024.89;;;24.55;62.14
81905;BME280;71370;-33.792;151.032;2024-01-27T03:46:53;100021.12;;;24.55;62.08
81905;BME280;71370;-33.792;151.032;2024-01-27T03:48:00;100019.50;;;24.55;62.10
81905;BME280;71370;-33.792;151.032;2024-01-27T03:49:07;100015.70;;;24.56;62.21
81905;BME280;71370;-33.792;151.032;2024-01-27T03:50:14;100012.13;;;24.55;61.98
81905;BME280;71370;-33.792;151.032;2024-01-27T03:51:21;100013.45;;;24.55;61.66
81905;BME280;71370;-33.792;151.032;2024-01-27T03:52:29;100021.20;;;24.54;61.54
81905;BME280;71370;-33.792;151.032;2024-01-27T03:53:37;100021.86;;;24.53;62.12
81905;BME280;71370;-33.792;151.032;2024-01-27T03:54:44;100031.81;;;24.52;61.94
81905;BME280;71370;-33.792;151.032;2024-01-27T03:55:50;100027.89;;;24.52;62.19
81905;BME280;71370;-33.792;151.032;2024-01-27T03:56:57;100025.83;;;24.53;62.57
81905;BME280;71370;-33.792;151.032;2024-01-27T03:58:04;100017.10;;;24.52;62.79
81905;BME280;71370;-33.792;151.032;2024-01-27T03:59:11;100015.47;;;24.52;62.82
81905;BME280;71370;-33.792;151.032;2024-01-27T04:00:19;100009.29;;;24.53;63.00
81905;BME280;71370;-33.792;151.032;2024-01-27T04:01:25;100009.23;;;24.53;62.93
81905;BME280;71370;-33.792;151.032;2024-01-27T04:02:32;100007.73;;;24.52;62.33
81905;BME280;71370;-33.792;151.032;2024-01-27T04:03:40;100001.44;;;24.52;62.43
81905;BME280;71370;-33.792;151.032;2024-01-27T04:04:46;100007.52;;;24.52;62.35
81905;BME280;71370;-33.792;151.032;2024-01-27T04:05:53;100008.25;;;24.52;62.17
81905;BME280;71370;-33.792;151.032;2024-01-27T04:07:00;100007.52;;;24.52;62.15
81905;BME280;71370;-33.792;151.032;2024-01-27T04:08:07;100007.52;;;24.53;62.00
81905;BME280;71370;-33.792;151.032;2024-01-27T04:09:15;100011.73;;;24.54;62.06
81905;BME280;71370;-33.792;151.032;2024-01-27T04:10:22;100010.80;;;24.54;62.03
81905;BME280;71370;-33.792;151.032;2024-01-27T04:11:29;100011.11;;;24.53;62.06
81905;BME280;71370;-33.792;151.032;2024-01-27T04:12:36;100009.10;;;24.50;61.96
81905;BME280;71370;-33.792;151.032;2024-01-27T04:13:43;100008.30;;;24.48;61.81
81905;BME280;71370;-33.792;151.032;2024-01-27T04:14:50;100009.67;;;24.47;62.07
81905;BME280;71370;-33.792;151.032;2024-01-27T04:15:57;100007.61;;;24.46;62.13
81905;BME280;71370;-33.792;151.032;2024-01-27T04:17:07;100001.25;;;24.43;61.85
81905;BME280;71370;-33.792;151.032;2024-01-27T04:18:14;100000.80;;;24.40;62.00
81905;BME280;71370;-33.792;151.032;2024-01-27T04:19:21;99998.61;;;24.36;62.39
81905;BME280;71370;-33.792;151.032;2024-01-27T04:20:28;99996.86;;;24.31;62.41
81905;BME280;71370;-33.792;151.032;2024-01-27T04:21:35;99998.58;;;24.27;62.98
81905;BME280;71370;-33.792;151.032;2024-01-27T04:22:42;99994.26;;;24.25;63.13
81905;BME280;71370;-33.792;151.032;2024-01-27T04:23:49;99989.89;;;24.24;63.54
81905;BME280;71370;-33.792;151.032;2024-01-27T04:24:56;99988.48;;;24.21;63.64
81905;BME280;71370;-33.792;151.032;2024-01-27T04:26:03;99989.11;;;24.18;63.75
81905;BME280;71370;-33.792;151.032;2024-01-27T04:27:12;99988.61;;;24.15;64.04
81905;BME280;71370;-33.792;151.032;2024-01-27T04:28:19;99989.07;;;24.12;64.02
81905;BME280;71370;-33.792;151.032;2024-01-27T04:29:26;99984.94;;;24.10;64.24
81905;BME280;71370;-33.792;151.032;2024-01-27T04:30:33;99986.02;;;24.10;64.24
81905;BME280;71370;-33.792;151.032;2024-01-27T04:31:41;99976.97;;;24.11;64.15
81905;BME280;71370;-33.792;151.032;2024-01-27T04:32:48;99970.23;;;24.12;64.19
81905;BME280;71370;-33.792;151.032;2024-01-27T04:33:56;99962.44;;;24.15;64.23
81905;BME280;71370;-33.792;151.032;2024-01-27T04:35:03;99957.52;;;24.18;64.24
81905;BME280;71370;-33.792;151.032;2024-01-27T04:36:10;99965.20;;;24.23;64.42
81905;BME280;71370;-33.792;151.032;2024-01-27T04:37:17;99970.30;;;24.29;64.13
81905;BME280;71370;-33.792;151.032;2024-01-27T04:38:24;99974.91;;;24.33;63.85
81905;BME280;71370;-33.792;151.032;2024-01-27T04:39:31;99972.11;;;24.39;63.64
81905;BME280;71370;-33.792;151.032;2024-01-27T04:40:38;99972.36;;;24.45;63.21
81905;BME280;71370;-33.792;151.032;2024-01-27T04:41:45;99972.75;;;24.48;62.90
81905;BME280;71370;-33.792;151.032;2024-01-27T04:42:52;99969.10;;;24.49;62.95
81905;BME280;71370;-33.792;151.032;2024-01-27T04:43:59;99961.33;;;24.50;63.15
81905;BME280;71370;-33.792;151.032;2024-01-27T04:45:06;99964.11;;;24.51;63.21
81905;BME280;71370;-33.792;151.032;2024-01-27T04:46:13;99965.43;;;24.55;63.43
81905;BME280;71370;-33.792;151.032;2024-01-27T04:47:20;99967.16;;;24.58;62.93
81905;BME280;71370;-33.792;151.032;2024-01-27T04:48:27;99962.56;;;24.61;62.89
81905;BME280;71370;-33.792;151.032;2024-01-27T04:49:34;99955.43;;;24.64;63.02
81905;BME280;71370;-33.792;151.032;2024-01-27T04:50:41;99952.56;;;24.69;63.01
81905;BME280;71370;-33.792;151.032;2024-01-27T04:51:48;99953.16;;;24.72;62.97
81905;BME280;71370;-33.792;151.032;2024-01-27T04:52:56;99953.80;;;24.73;62.86
81905;BME280;71370;-33.792;151.032;2024-01-27T04:54:02;99956.81;;;24.74;62.67
81905;BME280;71370;-33.792;151.032;2024-01-27T04:55:09;99959.64;;;24.75;62.87
81905;BME280;71370;-33.792;151.032;2024-01-27T04:56:16;99959.00;;;24.76;62.91
81905;BME280;71370;-33.792;151.032;2024-01-27T04:57:23;99954.16;;;24.78;62.77
81905;BME280;71370;-33.792;151.032;2024-01-27T04:58:30;99955.10;;;24.77;62.25
81905;BME280;71370;-33.792;151.032;2024-01-27T04:59:37;99953.65;;;24.77;62.73
81905;BME280;71370;-33.792;151.032;2024-01-27T05:00:44;99951.35;;;24.79;62.53
81905;BME280;71370;-33.792;151.032;2024-01-27T05:01:51;99956.54;;;24.81;62.32
81905;BME280;71370;-33.792;151.032;2024-01-27T05:02:58;99948.41;;;24.86;61.95
81905;BME280;71370;-33.792;151.032;2024-01-27T05:04:09;99939.38;;;24.93;61.75
81905;BME280;71370;-33.792;151.032;2024-01-27T05:05:16;99926.19;;;24.98;61.48
81905;BME280;71370;-33.792;151.032;2024-01-27T05:06:23;99920.80;;;25.01;61.64
81905;BME280;71370;-33.792;151.032;2024-01-27T05:07:30;99914.00;;;25.09;61.54
81905;BME280;71370;-33.792;151.032;2024-01-27T05:08:37;99911.91;;;25.19;61.78
81905;BME280;71370;-33.792;151.032;2024-01-27T05:09:43;99910.23;;;25.26;61.74
81905;BME280;71370;-33.792;151.032;2024-01-27T05:10:50;99913.52;;;25.34;61.86
81905;BME280;71370;-33.792;151.032;2024-01-27T05:12:00;99915.77;;;25.39;61.97
81905;BME280;71370;-33.792;151.032;2024-01-27T05:13:06;99920.86;;;25.42;61.46
81905;BME280;71370;-33.792;151.032;2024-01-27T05:14:13;99914.16;;;25.45;60.55
81905;BME280;71370;-33.792;151.032;2024-01-27T05:15:20;99910.12;;;25.45;60.09
81905;BME280;71370;-33.792;151.032;2024-01-27T05:16:28;99908.65;;;25.48;59.95
81905;BME280;71370;-33.792;151.032;2024-01-27T05:17:35;99900.33;;;25.50;59.99
81905;BME280;71370;-33.792;151.032;2024-01-27T05:18:42;99898.34;;;25.53;59.98
81905;BME280;71370;-33.792;151.032;2024-01-27T05:19:50;99897.26;;;25.55;59.37
81905;BME280;71370;-33.792;151.032;2024-01-27T05:20:57;99908.50;;;25.56;59.54
81905;BME280;71370;-33.792;151.032;2024-01-27T05:22:04;99920.24;;;25.57;60.00
81905;BME280;71370;-33.792;151.032;2024-01-27T05:23:11;99928.95;;;25.57;59.73
81905;BME280;71370;-33.792;151.032;2024-01-27T05:24:18;99927.55;;;25.56;59.48
81905;BME280;71370;-33.792;151.032;2024-01-27T05:25:25;99925.77;;;25.54;59.11
81905;BME280;71370;-33.792;151.032;2024-01-27T05:26:32;99923.56;;;25.50;59.17
81905;BME280;71370;-33.792;151.032;2024-01-27T05:27:39;99919.62;;;25.48;59.55
81905;BME280;71370;-33.792;151.032;2024-01-27T05:28:46;99917.50;;;25.48;59.63
81905;BME280;71370;-33.792;151.032;2024-01-27T05:29:53;99915.27;;;25.49;59.87
81905;BME280;71370;-33.792;151.032;2024-01-27T05:30:59;99918.55;;;25.48;59.78
81905;BME280;71370;-33.792;151.032;2024-01-27T05:32:06;99914.91;;;25.49;60.04
81905;BME280;71370;-33.792;151.032;2024-01-27T05:33:14;99909.29;;;25.51;60.06
81905;BME280;71370;-33.792;151.032;2024-01-27T05:34:22;99895.27;;;25.51;59.67
81905;BME280;71370;-33.792;151.032;2024-01-27T05:35:29;99888.79;;;25.49;59.52
81905;BME280;71370;-33.792;151.032;2024-01-27T05:36:38;99894.20;;;25.47;60.13
81905;BME280;71370;-33.792;151.032;2024-01-27T05:37:45;99894.63;;;25.48;60.18
81905;BME280;71370;-33.792;151.032;2024-01-27T05:38:52;99894.91;;;25.49;60.31